Terminal Aerodrome Forecast
Issued by NWS

Home | Current Version | Previous Version | Text Only | Print | Product List | Glossary On
Versions: 1 2 3 4 5 6 7 8 9 10 11 12 13 14 15 16 17 18 19 20 21 22 23 24 25 26 27 28 29
000
FTUS43 KABR 182000 AAA
TAFMBG
TAF AMD
KMBG 182058Z 1821/1918 15020G26KT P6SM BKN200
     FM190600 32015KT P6SM BKN200
     FM191200 29013KT P6SM SKC=

USA.gov is the U.S. government's official web portal to all federal, state and local government web resources and services.